sensor_id;sensor_type;location;lat;lon;timestamp;noise_LAeq;noise_LA_min;noise_LA_max;noise_LA01;noise_LA95
74504;Laerm;62988;55.776;37.544;2023-01-05T00:02:41;51.66;47.30;55.58;;
74504;Laerm;62988;55.776;37.544;2023-01-05T00:11:31;51.93;47.96;57.90;;
74504;Laerm;62988;55.776;37.544;2023-01-05T00:17:37;51.75;48.31;55.46;;
74504;Laerm;62988;55.776;37.544;2023-01-05T00:20:21;51.77;48.08;55.55;;
74504;Laerm;62988;55.776;37.544;2023-01-05T00:23:06;51.44;47.49;56.49;;
74504;Laerm;62988;55.776;37.544;2023-01-05T00:25:51;51.24;47.98;55.25;;
74504;Laerm;62988;55.776;37.544;2023-01-05T00:28:16;50.60;47.26;54.88;;
74504;Laerm;62988;55.776;37.544;2023-01-05T00:33:45;48.88;45.69;52.79;;
74504;Laerm;62988;55.776;37.544;2023-01-05T00:39:12;48.47;44.66;52.45;;
74504;Laerm;62988;55.776;37.544;2023-01-05T00:41:38;48.45;43.65;52.63;;
74504;Laerm;62988;55.776;37.544;2023-01-05T00:44:22;47.46;43.77;51.52;;
74504;Laerm;62988;55.776;37.544;2023-01-05T00:52:34;46.69;43.31;50.23;;
74504;Laerm;62988;55.776;37.544;2023-01-05T00:55:00;46.96;43.77;49.87;;
74504;Laerm;62988;55.776;37.544;2023-01-05T01:02:56;46.58;43.25;57.45;;
74504;Laerm;62988;55.776;37.544;2023-01-05T01:05:40;46.99;43.79;49.93;;
74504;Laerm;62988;55.776;37.544;2023-01-05T01:08:43;47.25;44.00;51.02;;
74504;Laerm;62988;55.776;37.544;2023-01-05T01:11:08;47.02;44.16;51.62;;
74504;Laerm;62988;55.776;37.544;2023-01-05T01:13:34;47.03;44.25;50.71;;
74504;Laerm;62988;55.776;37.544;2023-01-05T01:16:11;47.77;44.44;54.30;;
74504;Laerm;62988;55.776;37.544;2023-01-05T01:18:38;48.60;45.95;52.08;;
74504;Laerm;62988;55.776;37.544;2023-01-05T01:21:22;48.13;45.35;51.98;;
74504;Laerm;62988;55.776;37.544;2023-01-05T01:29:16;47.14;44.03;50.33;;
74504;Laerm;62988;55.776;37.544;2023-01-05T01:31:43;47.68;44.57;53.61;;
74504;Laerm;62988;55.776;37.544;2023-01-05T01:34:09;48.64;45.26;52.80;;
74504;Laerm;62988;55.776;37.544;2023-01-05T01:36:54;48.15;44.76;51.82;;
74504;Laerm;62988;55.776;37.544;2023-01-05T01:39:19;47.88;44.01;52.41;;
74504;Laerm;62988;55.776;37.544;2023-01-05T01:41:45;48.10;45.31;51.73;;
74504;Laerm;62988;55.776;37.544;2023-01-05T01:47:24;48.55;45.11;53.56;;
74504;Laerm;62988;55.776;37.544;2023-01-05T01:50:46;48.24;44.63;57.19;;
74504;Laerm;62988;55.776;37.544;2023-01-05T01:53:20;48.39;43.98;57.21;;
74504;Laerm;62988;55.776;37.544;2023-01-05T01:55:48;47.84;44.52;51.86;;
74504;Laerm;62988;55.776;37.544;2023-01-05T01:58:16;46.99;43.92;49.74;;
74504;Laerm;62988;55.776;37.544;2023-01-05T02:01:02;46.82;43.49;50.13;;
74504;Laerm;62988;55.776;37.544;2023-01-05T02:03:46;46.84;43.51;50.07;;
74504;Laerm;62988;55.776;37.544;2023-01-05T02:09:15;46.89;43.69;50.57;;
74504;Laerm;62988;55.776;37.544;2023-01-05T02:12:07;46.02;42.77;49.71;;
74504;Laerm;62988;55.776;37.544;2023-01-05T02:26:34;46.05;43.29;50.24;;
74504;Laerm;62988;55.776;37.544;2023-01-05T02:32:24;45.74;42.89;49.31;;
74504;Laerm;62988;55.776;37.544;2023-01-05T02:35:39;45.71;42.60;48.78;;
74504;Laerm;62988;55.776;37.544;2023-01-05T02:43:43;47.46;44.49;52.33;;
74504;Laerm;62988;55.776;37.544;2023-01-05T02:46:29;47.23;43.71;51.96;;
74504;Laerm;62988;55.776;37.544;2023-01-05T02:48:59;51.17;43.42;62.67;;
74504;Laerm;62988;55.776;37.544;2023-01-05T02:51:31;47.30;43.63;60.15;;
74504;Laerm;62988;55.776;37.544;2023-01-05T02:54:05;45.80;42.82;52.88;;
74504;Laerm;62988;55.776;37.544;2023-01-05T02:56:49;45.92;43.18;48.74;;
74504;Laerm;62988;55.776;37.544;2023-01-05T03:02:25;46.50;43.49;51.79;;
74504;Laerm;62988;55.776;37.544;2023-01-05T03:05:20;46.07;43.20;48.63;;
74504;Laerm;62988;55.776;37.544;2023-01-05T03:07:49;46.10;43.03;49.08;;
74504;Laerm;62988;55.776;37.544;2023-01-05T03:10:16;46.67;43.99;50.38;;
74504;Laerm;62988;55.776;37.544;2023-01-05T03:13:04;46.57;43.39;51.58;;
74504;Laerm;62988;55.776;37.544;2023-01-05T03:15:50;45.34;42.08;49.96;;
74504;Laerm;62988;55.776;37.544;2023-01-05T03:18:36;46.09;42.40;56.04;;
74504;Laerm;62988;55.776;37.544;2023-01-05T03:21:22;44.66;41.15;48.05;;
74504;Laerm;62988;55.776;37.544;2023-01-05T03:24:08;44.66;41.41;49.02;;
74504;Laerm;62988;55.776;37.544;2023-01-05T03:26:52;45.04;41.38;49.77;;
74504;Laerm;62988;55.776;37.544;2023-01-05T03:29:36;43.38;40.70;45.93;;
74504;Laerm;62988;55.776;37.544;2023-01-05T03:32:24;43.77;41.30;46.38;;
74504;Laerm;62988;55.776;37.544;2023-01-05T03:35:16;43.71;40.97;47.07;;
74504;Laerm;62988;55.776;37.544;2023-01-05T03:38:47;44.14;41.31;49.23;;
74504;Laerm;62988;55.776;37.544;2023-01-05T03:40:57;43.95;41.25;46.80;;
74504;Laerm;62988;55.776;37.544;2023-01-05T03:43:24;44.29;41.11;50.08;;
74504;Laerm;62988;55.776;37.544;2023-01-05T03:45:52;44.24;41.25;48.93;;
74504;Laerm;62988;55.776;37.544;2023-01-05T03:48:19;44.33;41.65;48.55;;
74504;Laerm;62988;55.776;37.544;2023-01-05T03:50:45;43.96;41.04;47.51;;
74504;Laerm;62988;55.776;37.544;2023-01-05T03:53:29;43.81;41.00;48.00;;
74504;Laerm;62988;55.776;37.544;2023-01-05T03:55:55;43.79;40.89;49.84;;
74504;Laerm;62988;55.776;37.544;2023-01-05T03:58:20;43.33;40.37;48.06;;
74504;Laerm;62988;55.776;37.544;2023-01-05T04:03:49;43.90;40.95;51.13;;
74504;Laerm;62988;55.776;37.544;2023-01-05T04:06:33;43.65;40.54;49.56;;
74504;Laerm;62988;55.776;37.544;2023-01-05T04:09:36;43.98;39.56;50.17;;
74504;Laerm;62988;55.776;37.544;2023-01-05T04:12:01;44.59;40.72;59.47;;
74504;Laerm;62988;55.776;37.544;2023-01-05T04:14:27;44.96;40.30;61.33;;
74504;Laerm;62988;55.776;37.544;2023-01-05T04:17:11;44.67;41.02;53.90;;
74504;Laerm;62988;55.776;37.544;2023-01-05T04:20:13;44.78;41.35;61.11;;
74504;Laerm;62988;55.776;37.544;2023-01-05T04:22:39;45.30;40.89;54.54;;
74504;Laerm;62988;55.776;37.544;2023-01-05T04:28:08;43.96;40.72;53.75;;
74504;Laerm;62988;55.776;37.544;2023-01-05T04:30:34;42.59;40.41;47.22;;
74504;Laerm;62988;55.776;37.544;2023-01-05T04:32:59;43.92;40.00;48.17;;
74504;Laerm;62988;55.776;37.544;2023-01-05T04:38:10;45.95;39.52;54.44;;
74504;Laerm;62988;55.776;37.544;2023-01-05T04:40:36;45.09;40.02;56.63;;
74504;Laerm;62988;55.776;37.544;2023-01-05T04:43:02;42.63;39.76;50.28;;
74504;Laerm;62988;55.776;37.544;2023-01-05T04:45:47;42.56;38.70;51.11;;
74504;Laerm;62988;55.776;37.544;2023-01-05T04:51:16;45.95;38.41;57.73;;
74504;Laerm;62988;55.776;37.544;2023-01-05T04:54:00;43.85;38.41;53.00;;
74504;Laerm;62988;55.776;37.544;2023-01-05T04:56:25;41.50;37.79;46.96;;
74504;Laerm;62988;55.776;37.544;2023-01-05T04:58:51;40.68;37.99;44.13;;
74504;Laerm;62988;55.776;37.544;2023-01-05T05:01:16;42.00;37.58;49.68;;
74504;Laerm;62988;55.776;37.544;2023-01-05T05:06:45;42.77;38.95;50.47;;
74504;Laerm;62988;55.776;37.544;2023-01-05T05:12:13;43.73;38.98;53.08;;
74504;Laerm;62988;55.776;37.544;2023-01-05T05:14:40;42.45;38.60;54.92;;
74504;Laerm;62988;55.776;37.544;2023-01-05T05:22:52;40.35;36.93;44.24;;
74504;Laerm;62988;55.776;37.544;2023-01-05T05:25:18;40.16;37.43;46.08;;
74504;Laerm;62988;55.776;37.544;2023-01-05T05:27:43;40.95;37.75;46.68;;
74504;Laerm;62988;55.776;37.544;2023-01-05T05:30:09;40.10;36.78;45.21;;
74504;Laerm;62988;55.776;37.544;2023-01-05T05:32:35;40.81;37.08;46.07;;
74504;Laerm;62988;55.776;37.544;2023-01-05T05:35:00;41.16;38.00;46.23;;
74504;Laerm;62988;55.776;37.544;2023-01-05T05:37:26;41.80;38.44;46.87;;
74504;Laerm;62988;55.776;37.544;2023-01-05T05:40:11;41.91;38.40;48.67;;
74504;Laerm;62988;55.776;37.544;2023-01-05T05:45:39;42.00;37.32;48.15;;
74504;Laerm;62988;55.776;37.544;2023-01-05T05:54:10;42.29;38.52;55.69;;
74504;Laerm;62988;55.776;37.544;2023-01-05T05:59:20;45.20;38.99;64.39;;
74504;Laerm;62988;55.776;37.544;2023-01-05T06:01:45;41.81;38.03;51.58;;
74504;Laerm;62988;55.776;37.544;2023-01-05T06:07:14;41.30;37.28;45.67;;
74504;Laerm;62988;55.776;37.544;2023-01-05T06:09:39;41.39;37.53;55.96;;
74504;Laerm;62988;55.776;37.544;2023-01-05T06:12:05;40.85;36.62;45.05;;
74504;Laerm;62988;55.776;37.544;2023-01-05T06:20:35;41.35;38.12;49.68;;
74504;Laerm;62988;55.776;37.544;2023-01-05T06:23:01;41.81;38.03;50.31;;
74504;Laerm;62988;55.776;37.544;2023-01-05T06:28:11;41.38;37.77;50.58;;
74504;Laerm;62988;55.776;37.544;2023-01-05T06:33:21;41.59;37.69;51.80;;
74504;Laerm;62988;55.776;37.544;2023-01-05T06:41:33;40.59;36.55;58.57;;
74504;Laerm;62988;55.776;37.544;2023-01-05T06:44:02;40.11;36.81;45.13;;
74504;Laerm;62988;55.776;37.544;2023-01-05T06:46:27;42.07;36.93;65.19;;
74504;Laerm;62988;55.776;37.544;2023-01-05T06:48:53;41.14;37.56;52.43;;
74504;Laerm;62988;55.776;37.544;2023-01-05T06:51:18;47.66;39.37;60.71;;
74504;Laerm;62988;55.776;37.544;2023-01-05T06:56:28;47.02;36.58;57.05;;
74504;Laerm;62988;55.776;37.544;2023-01-05T07:01:56;48.23;37.00;62.77;;
74504;Laerm;62988;55.776;37.544;2023-01-05T07:04:22;43.17;37.40;52.18;;
74504;Laerm;62988;55.776;37.544;2023-01-05T07:06:48;49.02;39.56;56.14;;
74504;Laerm;62988;55.776;37.544;2023-01-05T07:09:13;49.81;39.68;60.15;;
74504;Laerm;62988;55.776;37.544;2023-01-05T07:20:28;44.98;38.09;59.83;;
74504;Laerm;62988;55.776;37.544;2023-01-05T07:28:21;42.83;39.32;56.72;;
74504;Laerm;62988;55.776;37.544;2023-01-05T07:30:51;42.65;39.31;54.89;;
74504;Laerm;62988;55.776;37.544;2023-01-05T07:36:19;42.92;39.20;54.38;;
74504;Laerm;62988;55.776;37.544;2023-01-05T07:38:45;42.25;38.98;51.86;;
74504;Laerm;62988;55.776;37.544;2023-01-05T07:41:29;42.44;39.48;50.44;;
74504;Laerm;62988;55.776;37.544;2023-01-05T07:46:58;44.21;38.66;55.48;;
74504;Laerm;62988;55.776;37.544;2023-01-05T07:49:23;46.50;43.69;56.81;;
74504;Laerm;62988;55.776;37.544;2023-01-05T07:52:08;48.20;39.36;61.09;;
74504;Laerm;62988;55.776;37.544;2023-01-05T07:54:33;47.40;38.14;62.33;;
74504;Laerm;62988;55.776;37.544;2023-01-05T08:00:02;45.55;42.49;65.39;;
74504;Laerm;62988;55.776;37.544;2023-01-05T08:02:27;44.80;42.26;51.94;;
74504;Laerm;62988;55.776;37.544;2023-01-05T08:04:53;44.77;42.45;49.21;;
74504;Laerm;62988;55.776;37.544;2023-01-05T08:07:18;48.27;40.26;61.32;;
74504;Laerm;62988;55.776;37.544;2023-01-05T08:09:44;40.44;37.27;45.80;;
74504;Laerm;62988;55.776;37.544;2023-01-05T08:12:28;39.95;36.21;48.66;;
74504;Laerm;62988;55.776;37.544;2023-01-05T08:15:13;40.78;36.25;56.68;;
74504;Laerm;62988;55.776;37.544;2023-01-05T08:17:39;42.47;39.23;51.82;;
74504;Laerm;62988;55.776;37.544;2023-01-05T08:20:05;41.87;38.58;53.82;;
74504;Laerm;62988;55.776;37.544;2023-01-05T08:22:31;41.29;37.99;51.66;;
74504;Laerm;62988;55.776;37.544;2023-01-05T08:25:34;41.53;37.56;48.13;;
74504;Laerm;62988;55.776;37.544;2023-01-05T08:28:18;42.42;37.89;54.44;;
74504;Laerm;62988;55.776;37.544;2023-01-05T08:33:47;45.16;38.07;64.60;;
74504;Laerm;62988;55.776;37.544;2023-01-05T08:36:16;40.98;36.67;47.14;;
74504;Laerm;62988;55.776;37.544;2023-01-05T08:38:43;40.71;36.27;51.19;;
74504;Laerm;62988;55.776;37.544;2023-01-05T08:41:23;41.32;36.31;60.06;;
74504;Laerm;62988;55.776;37.544;2023-01-05T08:47:10;41.57;37.62;57.68;;
74504;Laerm;62988;55.776;37.544;2023-01-05T08:49:35;42.81;39.30;50.45;;
74504;Laerm;62988;55.776;37.544;2023-01-05T08:52:01;42.41;38.57;59.50;;
74504;Laerm;62988;55.776;37.544;2023-01-05T08:54:26;44.51;38.92;55.57;;
74504;Laerm;62988;55.776;37.544;2023-01-05T08:59:55;44.10;37.74;60.38;;
74504;Laerm;62988;55.776;37.544;2023-01-05T09:02:20;41.27;36.48;59.28;;
74504;Laerm;62988;55.776;37.544;2023-01-05T09:05:05;40.31;35.44;55.41;;
74504;Laerm;62988;55.776;37.544;2023-01-05T09:07:31;40.54;36.24;50.26;;
74504;Laerm;62988;55.776;37.544;2023-01-05T09:09:56;40.56;36.04;46.71;;
74504;Laerm;62988;55.776;37.544;2023-01-05T09:15:06;40.31;36.63;48.08;;
74504;Laerm;62988;55.776;37.544;2023-01-05T09:17:32;41.48;36.78;50.69;;
74504;Laerm;62988;55.776;37.544;2023-01-05T09:20:00;40.59;36.46;54.66;;
74504;Laerm;62988;55.776;37.544;2023-01-05T09:22:29;39.82;36.57;48.43;;
74504;Laerm;62988;55.776;37.544;2023-01-05T09:24:55;39.82;36.01;44.19;;
74504;Laerm;62988;55.776;37.544;2023-01-05T09:27:38;45.86;36.52;65.03;;
74504;Laerm;62988;55.776;37.544;2023-01-05T09:30:06;47.62;45.20;53.82;;
74504;Laerm;62988;55.776;37.544;2023-01-05T09:32:32;47.65;44.86;50.66;;
74504;Laerm;62988;55.776;37.544;2023-01-05T09:34:57;47.78;44.76;58.24;;
74504;Laerm;62988;55.776;37.544;2023-01-05T09:37:23;47.72;45.22;56.28;;
74504;Laerm;62988;55.776;37.544;2023-01-05T09:40:07;47.72;45.19;51.18;;
74504;Laerm;62988;55.776;37.544;2023-01-05T09:42:33;47.89;45.51;54.41;;
74504;Laerm;62988;55.776;37.544;2023-01-05T09:45:03;47.83;45.16;53.69;;
74504;Laerm;62988;55.776;37.544;2023-01-05T09:50:51;47.91;37.16;68.73;;
74504;Laerm;62988;55.776;37.544;2023-01-05T09:53:23;40.23;36.58;45.96;;
74504;Laerm;62988;55.776;37.544;2023-01-05T09:55:50;40.60;37.08;48.92;;
74504;Laerm;62988;55.776;37.544;2023-01-05T09:58:20;44.90;37.15;52.07;;
74504;Laerm;62988;55.776;37.544;2023-01-05T10:01:11;40.87;36.97;45.55;;
74504;Laerm;62988;55.776;37.544;2023-01-05T10:04:00;41.34;36.44;55.04;;
74504;Laerm;62988;55.776;37.544;2023-01-05T10:06:36;42.38;36.52;48.27;;
74504;Laerm;62988;55.776;37.544;2023-01-05T10:09:31;44.64;37.32;73.83;;
74504;Laerm;62988;55.776;37.544;2023-01-05T10:15:41;40.08;35.67;49.21;;
74504;Laerm;62988;55.776;37.544;2023-01-05T10:18:14;40.25;36.14;47.17;;
74504;Laerm;62988;55.776;37.544;2023-01-05T10:33:02;45.93;38.60;57.32;;
74504;Laerm;62988;55.776;37.544;2023-01-05T10:47:24;40.97;36.67;54.09;;
74504;Laerm;62988;55.776;37.544;2023-01-05T10:52:36;40.29;35.79;52.16;;
74504;Laerm;62988;55.776;37.544;2023-01-05T10:55:04;40.54;36.97;47.28;;
74504;Laerm;62988;55.776;37.544;2023-01-05T10:57:53;40.85;35.73;54.28;;
74504;Laerm;62988;55.776;37.544;2023-01-05T11:03:04;39.20;34.66;53.70;;
74504;Laerm;62988;55.776;37.544;2023-01-05T11:05:37;39.98;35.32;55.42;;
74504;Laerm;62988;55.776;37.544;2023-01-05T11:08:14;40.07;34.70;55.82;;
74504;Laerm;62988;55.776;37.544;2023-01-05T11:13:38;40.21;36.64;49.15;;
74504;Laerm;62988;55.776;37.544;2023-01-05T11:16:11;40.12;35.08;49.51;;
74504;Laerm;62988;55.776;37.544;2023-01-05T11:18:58;43.40;36.08;59.28;;
74504;Laerm;62988;55.776;37.544;2023-01-05T11:21:27;47.56;36.35;58.26;;
74504;Laerm;62988;55.776;37.544;2023-01-05T11:24:08;41.54;35.92;62.42;;
74504;Laerm;62988;55.776;37.544;2023-01-05T11:26:51;42.12;35.56;56.40;;
74504;Laerm;62988;55.776;37.544;2023-01-05T11:29:17;41.27;35.63;51.94;;
74504;Laerm;62988;55.776;37.544;2023-01-05T11:31:56;40.59;35.37;49.90;;
74504;Laerm;62988;55.776;37.544;2023-01-05T11:34:44;42.82;38.45;62.17;;
74504;Laerm;62988;55.776;37.544;2023-01-05T11:42:15;44.68;38.12;55.39;;
74504;Laerm;62988;55.776;37.544;2023-01-05T11:45:01;49.12;38.49;56.00;;
74504;Laerm;62988;55.776;37.544;2023-01-05T11:47:32;45.55;37.89;53.97;;
74504;Laerm;62988;55.776;37.544;2023-01-05T11:50:19;41.90;37.33;55.17;;
74504;Laerm;62988;55.776;37.544;2023-01-05T11:52:53;41.51;37.52;60.42;;
74504;Laerm;62988;55.776;37.544;2023-01-05T12:10:27;40.56;36.02;59.84;;
74504;Laerm;62988;55.776;37.544;2023-01-05T12:19:16;42.77;35.81;62.25;;
74504;Laerm;62988;55.776;37.544;2023-01-05T12:35:36;40.55;36.33;50.07;;
74504;Laerm;62988;55.776;37.544;2023-01-05T12:44:40;40.26;35.77;53.20;;
74504;Laerm;62988;55.776;37.544;2023-01-05T12:52:55;38.88;34.22;46.81;;
74504;Laerm;62988;55.776;37.544;2023-01-05T12:55:46;39.81;34.58;50.52;;
74504;Laerm;62988;55.776;37.544;2023-01-05T12:58:35;39.31;35.14;50.48;;
74504;Laerm;62988;55.776;37.544;2023-01-05T13:01:05;43.14;36.21;61.07;;
74504;Laerm;62988;55.776;37.544;2023-01-05T13:03:42;39.74;34.79;61.46;;
74504;Laerm;62988;55.776;37.544;2023-01-05T13:06:34;40.30;35.16;57.03;;
74504;Laerm;62988;55.776;37.544;2023-01-05T13:09:07;39.96;37.05;44.61;;
74504;Laerm;62988;55.776;37.544;2023-01-05T13:11:44;46.94;37.25;57.24;;
74504;Laerm;62988;55.776;37.544;2023-01-05T13:14:18;46.24;37.77;58.88;;
74504;Laerm;62988;55.776;37.544;2023-01-05T13:16:49;39.29;34.85;45.58;;
74504;Laerm;62988;55.776;37.544;2023-01-05T13:19:20;39.61;35.72;46.96;;
74504;Laerm;62988;55.776;37.544;2023-01-05T13:21:51;39.06;35.30;44.55;;
74504;Laerm;62988;55.776;37.544;2023-01-05T13:54:40;39.02;34.37;45.71;;
74504;Laerm;62988;55.776;37.544;2023-01-05T14:03:23;39.09;35.81;44.30;;
74504;Laerm;62988;55.776;37.544;2023-01-05T14:05:54;40.35;36.40;49.06;;
74504;Laerm;62988;55.776;37.544;2023-01-05T14:08:28;40.18;36.51;51.19;;
74504;Laerm;62988;55.776;37.544;2023-01-05T14:22:24;39.89;36.08;46.59;;
74504;Laerm;62988;55.776;37.544;2023-01-05T14:24:56;39.87;34.81;49.03;;
74504;Laerm;62988;55.776;37.544;2023-01-05T14:28:19;39.15;35.41;47.21;;
74504;Laerm;62988;55.776;37.544;2023-01-05T14:33:30;40.25;35.38;58.03;;
74504;Laerm;62988;55.776;37.544;2023-01-05T14:35:55;40.01;36.00;45.82;;
74504;Laerm;62988;55.776;37.544;2023-01-05T14:38:23;41.91;34.88;57.00;;
74504;Laerm;62988;55.776;37.544;2023-01-05T14:41:14;39.62;36.08;45.80;;
74504;Laerm;62988;55.776;37.544;2023-01-05T14:44:13;39.58;35.23;52.35;;
74504;Laerm;62988;55.776;37.544;2023-01-05T14:46:59;39.92;35.73;49.43;;
74504;Laerm;62988;55.776;37.544;2023-01-05T14:52:01;38.74;34.44;48.53;;
74504;Laerm;62988;55.776;37.544;2023-01-05T15:02:45;38.72;34.93;49.81;;
74504;Laerm;62988;55.776;37.544;2023-01-05T15:05:16;39.20;35.74;44.12;;
74504;Laerm;62988;55.776;37.544;2023-01-05T15:30:30;46.11;35.79;62.42;;
74504;Laerm;62988;55.776;37.544;2023-01-05T15:33:44;40.69;36.52;55.21;;
74504;Laerm;62988;55.776;37.544;2023-01-05T15:36:48;42.89;36.07;56.24;;
74504;Laerm;62988;55.776;37.544;2023-01-05T15:39:30;41.72;36.46;57.32;;
74504;Laerm;62988;55.776;37.544;2023-01-05T15:42:22;40.64;36.44;56.46;;
74504;Laerm;62988;55.776;37.544;2023-01-05T15:56:36;41.49;38.53;46.02;;
74504;Laerm;62988;55.776;37.544;2023-01-05T15:59:33;42.25;39.20;52.94;;
74504;Laerm;62988;55.776;37.544;2023-01-05T16:04:44;42.31;36.38;58.20;;
74504;Laerm;62988;55.776;37.544;2023-01-05T16:07:09;42.30;39.77;50.02;;
74504;Laerm;62988;55.776;37.544;2023-01-05T16:12:38;41.95;36.16;48.89;;
74504;Laerm;62988;55.776;37.544;2023-01-05T16:15:23;40.21;36.43;50.36;;
74504;Laerm;62988;55.776;37.544;2023-01-05T16:21:13;43.13;37.54;64.65;;
74504;Laerm;62988;55.776;37.544;2023-01-05T16:24:02;41.59;37.01;59.77;;
74504;Laerm;62988;55.776;37.544;2023-01-05T16:26:30;42.98;36.98;58.35;;
74504;Laerm;62988;55.776;37.544;2023-01-05T16:28:59;41.60;36.68;51.06;;
74504;Laerm;62988;55.776;37.544;2023-01-05T16:31:32;39.87;36.25;46.73;;
74504;Laerm;62988;55.776;37.544;2023-01-05T16:40:22;39.59;36.03;50.83;;
74504;Laerm;62988;55.776;37.544;2023-01-05T16:52:04;42.30;36.86;60.02;;
74504;Laerm;62988;55.776;37.544;2023-01-05T16:57:39;44.78;35.40;73.78;;
74504;Laerm;62988;55.776;37.544;2023-01-05T17:03:28;39.52;35.65;48.66;;
74504;Laerm;62988;55.776;37.544;2023-01-05T17:05:55;39.01;35.86;44.81;;
74504;Laerm;62988;55.776;37.544;2023-01-05T17:08:23;39.09;36.00;43.87;;
74504;Laerm;62988;55.776;37.544;2023-01-05T17:10:52;39.74;35.83;55.03;;
74504;Laerm;62988;55.776;37.544;2023-01-05T17:13:55;40.09;36.56;53.87;;
74504;Laerm;62988;55.776;37.544;2023-01-05T17:16:21;39.94;36.30;48.08;;
74504;Laerm;62988;55.776;37.544;2023-01-05T17:24:38;40.16;36.83;46.60;;
74504;Laerm;62988;55.776;37.544;2023-01-05T17:27:03;39.75;35.99;46.50;;
74504;Laerm;62988;55.776;37.544;2023-01-05T17:29:31;39.49;35.97;49.51;;
74504;Laerm;62988;55.776;37.544;2023-01-05T17:32:15;39.72;35.77;47.70;;
74504;Laerm;62988;55.776;37.544;2023-01-05T17:34:41;39.38;35.60;48.45;;
74504;Laerm;62988;55.776;37.544;2023-01-05T17:37:14;39.78;36.34;45.20;;
74504;Laerm;62988;55.776;37.544;2023-01-05T17:39:40;39.76;36.63;50.41;;
74504;Laerm;62988;55.776;37.544;2023-01-05T17:42:05;38.77;35.64;44.52;;
74504;Laerm;62988;55.776;37.544;2023-01-05T17:44:49;39.68;34.76;49.16;;
74504;Laerm;62988;55.776;37.544;2023-01-05T17:47:33;40.97;35.55;57.61;;
74504;Laerm;62988;55.776;37.544;2023-01-05T17:49:59;39.88;35.80;52.22;;
74504;Laerm;62988;55.776;37.544;2023-01-05T17:52:24;39.38;35.84;46.75;;
74504;Laerm;62988;55.776;37.544;2023-01-05T17:55:10;40.42;35.89;54.01;;
74504;Laerm;62988;55.776;37.544;2023-01-05T17:57:56;40.54;35.59;60.41;;
74504;Laerm;62988;55.776;37.544;2023-01-05T18:00:41;39.45;36.25;49.57;;
74504;Laerm;62988;55.776;37.544;2023-01-05T18:03:25;40.63;36.63;55.06;;
74504;Laerm;62988;55.776;37.544;2023-01-05T18:08:54;39.74;36.61;50.16;;
74504;Laerm;62988;55.776;37.544;2023-01-05T18:11:19;40.25;36.97;45.44;;
74504;Laerm;62988;55.776;37.544;2023-01-05T18:14:03;40.05;36.79;51.85;;
74504;Laerm;62988;55.776;37.544;2023-01-05T18:16:29;39.97;37.44;47.06;;
74504;Laerm;62988;55.776;37.544;2023-01-05T18:21:45;39.52;36.53;44.15;;
74504;Laerm;62988;55.776;37.544;2023-01-05T18:27:13;39.18;35.96;48.31;;
74504;Laerm;62988;55.776;37.544;2023-01-05T18:35:44;39.20;35.08;52.13;;
74504;Laerm;62988;55.776;37.544;2023-01-05T18:38:28;39.24;35.72;48.60;;
74504;Laerm;62988;55.776;37.544;2023-01-05T18:40:54;40.04;36.00;46.76;;
74504;Laerm;62988;55.776;37.544;2023-01-05T18:43:38;40.21;36.84;47.80;;
74504;Laerm;62988;55.776;37.544;2023-01-05T18:46:04;39.82;36.10;47.58;;
74504;Laerm;62988;55.776;37.544;2023-01-05T18:51:14;39.35;35.55;44.71;;
74504;Laerm;62988;55.776;37.544;2023-01-05T18:53:58;38.89;35.48;45.52;;
74504;Laerm;62988;55.776;37.544;2023-01-05T18:59:10;38.55;35.55;43.87;;
74504;Laerm;62988;55.776;37.544;2023-01-05T19:01:36;39.57;34.83;51.05;;
74504;Laerm;62988;55.776;37.544;2023-01-05T19:04:10;38.36;34.16;44.29;;
74504;Laerm;62988;55.776;37.544;2023-01-05T19:06:54;38.60;35.48;50.74;;
74504;Laerm;62988;55.776;37.544;2023-01-05T19:09:20;39.30;35.96;44.21;;
74504;Laerm;62988;55.776;37.544;2023-01-05T19:12:04;39.39;35.87;43.49;;
74504;Laerm;62988;55.776;37.544;2023-01-05T19:14:30;41.45;37.08;55.93;;
74504;Laerm;62988;55.776;37.544;2023-01-05T19:17:14;41.90;36.25;57.89;;
74504;Laerm;62988;55.776;37.544;2023-01-05T19:19:58;38.80;35.30;44.83;;
74504;Laerm;62988;55.776;37.544;2023-01-05T19:25:28;38.26;34.54;45.65;;
74504;Laerm;62988;55.776;37.544;2023-01-05T19:27:54;38.47;34.51;44.84;;
74504;Laerm;62988;55.776;37.544;2023-01-05T19:39:30;38.61;33.87;44.66;;
74504;Laerm;62988;55.776;37.544;2023-01-05T19:42:15;38.53;34.62;49.30;;
74504;Laerm;62988;55.776;37.544;2023-01-05T19:44:59;38.90;35.52;49.15;;
74504;Laerm;62988;55.776;37.544;2023-01-05T19:47:43;38.22;34.31;47.57;;
74504;Laerm;62988;55.776;37.544;2023-01-05T19:50:28;38.41;34.35;50.73;;
74504;Laerm;62988;55.776;37.544;2023-01-05T19:55:56;38.53;35.12;43.82;;
74504;Laerm;62988;55.776;37.544;2023-01-05T19:58:42;37.99;34.24;43.94;;
74504;Laerm;62988;55.776;37.544;2023-01-05T20:01:27;38.61;34.77;48.23;;
74504;Laerm;62988;55.776;37.544;2023-01-05T20:03:53;38.44;34.83;44.59;;
74504;Laerm;62988;55.776;37.544;2023-01-05T20:09:08;38.75;34.12;46.78;;
74504;Laerm;62988;55.776;37.544;2023-01-05T20:14:22;37.63;34.17;54.25;;
74504;Laerm;62988;55.776;37.544;2023-01-05T20:16:56;38.13;33.51;46.71;;
74504;Laerm;62988;55.776;37.544;2023-01-05T20:19:23;37.51;33.69;47.78;;
74504;Laerm;62988;55.776;37.544;2023-01-05T20:21:53;38.33;32.97;51.49;;
74504;Laerm;62988;55.776;37.544;2023-01-05T20:24:37;37.45;33.15;58.12;;
74504;Laerm;62988;55.776;37.544;2023-01-05T20:29:48;38.47;34.26;52.53;;
74504;Laerm;62988;55.776;37.544;2023-01-05T20:32:17;37.64;33.44;43.46;;
74504;Laerm;62988;55.776;37.544;2023-01-05T20:35:20;36.77;33.07;42.12;;
74504;Laerm;62988;55.776;37.544;2023-01-05T20:38:04;36.99;32.93;42.09;;
74504;Laerm;62988;55.776;37.544;2023-01-05T20:40:48;36.90;33.48;45.35;;
74504;Laerm;62988;55.776;37.544;2023-01-05T20:43:32;37.39;32.91;42.58;;
74504;Laerm;62988;55.776;37.544;2023-01-05T20:45:58;37.23;33.61;43.86;;
74504;Laerm;62988;55.776;37.544;2023-01-05T20:48:42;38.34;33.76;45.90;;
74504;Laerm;62988;55.776;37.544;2023-01-05T20:51:10;37.54;33.45;46.71;;
74504;Laerm;62988;55.776;37.544;2023-01-05T20:53:36;37.64;33.04;53.93;;
74504;Laerm;62988;55.776;37.544;2023-01-05T20:59:18;39.95;34.22;56.81;;
74504;Laerm;62988;55.776;37.544;2023-01-05T21:01:44;36.90;31.78;56.68;;
74504;Laerm;62988;55.776;37.544;2023-01-05T21:04:29;37.67;33.23;56.28;;
74504;Laerm;62988;55.776;37.544;2023-01-05T21:06:55;36.63;32.85;48.98;;
74504;Laerm;62988;55.776;37.544;2023-01-05T21:09:27;37.42;33.40;43.73;;
74504;Laerm;62988;55.776;37.544;2023-01-05T21:11:54;37.11;32.89;44.37;;
74504;Laerm;62988;55.776;37.544;2023-01-05T21:14:19;37.75;32.87;43.68;;
74504;Laerm;62988;55.776;37.544;2023-01-05T21:19:33;37.38;33.87;45.05;;
74504;Laerm;62988;55.776;37.544;2023-01-05T21:22:18;37.11;32.98;46.55;;
74504;Laerm;62988;55.776;37.544;2023-01-05T21:24:43;36.72;32.78;43.75;;